createdAt,value
2018-06-28T00:01:15.527Z,2
2018-06-28T00:07:10.531Z,2.03
2018-06-28T00:13:05.519Z,1.79
2018-06-28T00:19:00.530Z,1.71
2018-06-28T00:24:55.538Z,1.73
2018-06-28T00:30:50.545Z,1.59
2018-06-28T00:36:45.546Z,1.49
2018-06-28T00:42:40.499Z,2.44
2018-06-28T00:48:35.547Z,2.55
2018-06-28T00:54:30.519Z,2.42
2018-06-28T01:00:25.579Z,2.4
2018-06-28T01:06:20.567Z,2.04
2018-06-28T01:12:15.546Z,1.97
2018-06-28T01:18:10.531Z,1.58
2018-06-28T01:24:05.537Z,2.22
2018-06-28T01:30:00.593Z,2.23
2018-06-28T01:35:55.552Z,2.13
2018-06-28T01:41:50.571Z,1.87
2018-06-28T01:47:45.546Z,1.28
2018-06-28T01:53:40.590Z,1.23
2018-06-28T01:59:35.564Z,1.45
2018-06-28T02:05:30.595Z,1.43
2018-06-28T02:11:25.601Z,1.42
2018-06-28T02:17:20.584Z,1.1
2018-06-28T02:23:15.637Z,1.07
2018-06-28T02:29:10.591Z,1.31
2018-06-28T02:35:05.573Z,1.33
2018-06-28T02:41:00.574Z,1.25
2018-06-28T02:46:55.610Z,1.37
2018-06-28T02:52:50.614Z,1.39
2018-06-28T02:58:45.605Z,1.37
2018-06-28T03:04:40.611Z,1.18
2018-06-28T03:10:35.666Z,1.35
2018-06-28T03:16:30.601Z,1.85
2018-06-28T03:22:25.633Z,1.61
2018-06-28T03:28:20.627Z,1.73
2018-06-28T03:34:15.613Z,1.87
2018-06-28T03:40:10.623Z,1.7
2018-06-28T03:46:05.610Z,1.54
2018-06-28T03:52:00.664Z,1.56
2018-06-28T03:57:55.645Z,1.87
2018-06-28T04:03:50.682Z,1.03
2018-06-28T04:09:45.670Z,1.42
2018-06-28T04:15:40.677Z,1.47
2018-06-28T04:21:35.660Z,1.26
2018-06-28T04:27:30.704Z,1.41
2018-06-28T04:33:25.644Z,1.33
2018-06-28T04:39:20.675Z,1.7
2018-06-28T04:45:15.722Z,1.76
2018-06-28T04:51:10.673Z,1.75
2018-06-28T04:57:05.685Z,1.6
2018-06-28T05:03:00.657Z,1.27
2018-06-28T05:08:55.663Z,1.51
2018-06-28T05:14:50.717Z,1.42
2018-06-28T05:20:45.711Z,1.52
2018-06-28T05:26:40.694Z,1.41
2018-06-28T05:32:35.671Z,1.36
2018-06-28T05:38:30.732Z,2.13
2018-06-28T05:44:25.747Z,5.43
2018-06-28T05:50:20.812Z,8.67
2018-06-28T05:56:15.680Z,9.72
2018-06-28T06:02:10.743Z,8.55
2018-06-28T06:08:05.723Z,7.47
2018-06-28T06:14:00.699Z,5.9
2018-06-28T06:19:55.726Z,3.22
2018-06-28T06:25:50.767Z,2.53
2018-06-28T06:31:45.743Z,2.69
2018-06-28T06:37:40.768Z,2.97
2018-06-28T06:43:35.756Z,2.37
2018-06-28T06:49:30.748Z,3
2018-06-28T06:55:25.756Z,2.46
2018-06-28T07:01:20.816Z,2.28
2018-06-28T07:07:15.716Z,2.13
2018-06-28T07:13:10.803Z,2.02
2018-06-28T07:19:05.752Z,1.99
2018-06-28T07:25:00.781Z,1.86
2018-06-28T07:30:55.768Z,1.83
2018-06-28T07:36:50.792Z,1.76
2018-06-28T07:42:45.797Z,1.96
2018-06-28T07:48:40.820Z,1.91
2018-06-28T07:54:35.762Z,2.45
2018-06-28T08:00:30.843Z,2.03
2018-06-28T08:06:25.791Z,1.96
2018-06-28T08:12:20.796Z,1.88
2018-06-28T08:18:15.760Z,1.45
2018-06-28T08:24:10.803Z,1.23
2018-06-28T08:30:05.807Z,1.19
2018-06-28T08:36:00.886Z,1
2018-06-28T08:41:55.803Z,0.87
2018-06-28T08:47:50.836Z,1.1
2018-06-28T08:53:45.803Z,1.04
2018-06-28T08:59:40.836Z,1.13
2018-06-28T09:05:35.832Z,1.17
2018-06-28T09:11:30.794Z,0.89
2018-06-28T09:17:25.822Z,0.97
2018-06-28T09:23:20.844Z,1.01
2018-06-28T09:29:15.823Z,1.5
2018-06-28T09:35:10.974Z,0.99
2018-06-28T09:41:07.857Z,1.15
2018-06-28T09:47:00.835Z,1.06
2018-06-28T09:52:59.009Z,1.14
2018-06-28T09:58:52.765Z,1.11
2018-06-28T10:04:45.866Z,1.02
2018-06-28T10:28:25.889Z,1.22
2018-06-28T10:34:30.131Z,1.13
2018-06-28T10:46:10.885Z,1.42
2018-06-28T10:46:10.892Z,1.51
2018-06-28T10:52:05.906Z,1.54
2018-06-28T10:58:00.899Z,1.56
2018-06-28T11:03:55.878Z,1.57
2018-06-28T11:09:50.887Z,1.85
2018-06-28T11:15:45.942Z,1.45
2018-06-28T11:21:40.892Z,1.35
2018-06-28T11:27:35.886Z,1.51
2018-06-28T11:33:30.941Z,1.73
2018-06-28T11:39:25.910Z,1.45
2018-06-28T11:45:20.884Z,1.91
2018-06-28T11:51:16.004Z,2.11
2018-06-28T11:57:10.892Z,4.35
2018-06-28T12:03:05.928Z,4.87
2018-06-28T12:09:00.937Z,4.23
2018-06-28T12:14:55.915Z,5.29
2018-06-28T12:20:50.905Z,4.66
2018-06-28T12:26:45.943Z,3.97
2018-06-28T12:32:40.939Z,3.33
2018-06-28T12:38:35.925Z,1.57
2018-06-28T12:44:30.949Z,1.67
2018-06-28T12:50:25.932Z,1.84
2018-06-28T12:56:20.940Z,3.01
2018-06-28T13:02:15.981Z,3.1
2018-06-28T13:08:11.119Z,3.22
2018-06-28T13:14:05.963Z,2.65
2018-06-28T13:20:01.122Z,2.98
2018-06-28T13:25:55.977Z,2.24
2018-06-28T13:31:50.980Z,2.73
2018-06-28T13:37:45.984Z,2.88
2018-06-28T13:43:41.011Z,2.82
2018-06-28T13:49:35.974Z,2.29
2018-06-28T13:55:30.993Z,2.8
2018-06-28T14:01:25.959Z,2.21
2018-06-28T14:07:20.993Z,2.8
2018-06-28T14:13:16.036Z,2.22
2018-06-28T14:19:10.972Z,2.57
2018-06-28T14:25:06.046Z,2.48
2018-06-28T14:31:00.967Z,2.01
2018-06-28T14:36:55.980Z,2.18
2018-06-28T14:42:50.997Z,1.55
2018-06-28T14:48:46.009Z,2.09
2018-06-28T14:54:41.038Z,1.86
2018-06-28T15:00:36.023Z,1.62
2018-06-28T15:06:31.040Z,1.79
2018-06-28T15:12:26.018Z,1.93
2018-06-28T15:18:20.997Z,2.1
2018-06-28T15:24:16.010Z,2.05
2018-06-28T15:30:11.398Z,1.9
2018-06-28T15:36:06.070Z,2.07
2018-06-28T15:42:01.041Z,3.98
2018-06-28T15:47:56.054Z,5.47
2018-06-28T15:53:51.039Z,7.2
2018-06-28T15:59:46.075Z,9.88
2018-06-28T16:05:41.059Z,8.76
2018-06-28T16:11:36.053Z,4.14
2018-06-28T16:17:31.073Z,9.34
2018-06-28T16:23:26.079Z,7.73
2018-06-28T16:29:21.068Z,7.93
2018-06-28T16:35:16.076Z,7.11
2018-06-28T16:41:11.099Z,3.61
2018-06-28T16:47:06.054Z,2.86
2018-06-28T16:53:01.098Z,1.6
2018-06-28T16:58:56.148Z,1.74
2018-06-28T17:04:51.074Z,2.78
2018-06-28T17:10:46.085Z,4.43
2018-06-28T17:16:41.104Z,4.53
2018-06-28T17:22:36.110Z,4.23
2018-06-28T17:28:31.102Z,1.64
2018-06-28T17:34:26.112Z,1.68
2018-06-28T17:40:21.196Z,2.07
2018-06-28T17:46:16.113Z,2.51
2018-06-28T17:52:11.146Z,2.62
2018-06-28T17:58:06.103Z,2.64
2018-06-28T18:04:01.110Z,2.83
2018-06-28T18:09:56.149Z,2.28
2018-06-28T18:15:51.130Z,2.17
2018-06-28T18:21:46.142Z,1.92
2018-06-28T18:27:41.251Z,2.25
2018-06-28T18:33:36.164Z,2.23
2018-06-28T18:39:31.317Z,2.43
2018-06-28T18:45:26.271Z,2.24
2018-06-28T18:51:21.156Z,2.21
2018-06-28T18:57:16.155Z,2.04
2018-06-28T19:03:11.180Z,2.25
2018-06-28T19:09:06.164Z,2.41
2018-06-28T19:15:01.189Z,2.24
2018-06-28T19:20:56.160Z,2.29
2018-06-28T19:26:51.166Z,2.48
2018-06-28T19:32:46.149Z,2.76
2018-06-28T19:38:41.210Z,3
2018-06-28T19:44:36.208Z,2.21
2018-06-28T19:50:31.262Z,2.41
2018-06-28T19:56:26.153Z,2.58
2018-06-28T20:02:21.223Z,2.4
2018-06-28T20:08:16.201Z,2.77
2018-06-28T20:14:11.176Z,2.75
2018-06-28T20:20:06.235Z,2.7
2018-06-28T20:26:01.217Z,2.35
2018-06-28T20:31:56.500Z,2.53
2018-06-28T20:37:51.217Z,2.12
2018-06-28T20:43:46.220Z,1.81
2018-06-28T20:49:41.245Z,1.73
2018-06-28T20:55:36.235Z,1.94
2018-06-28T21:01:31.225Z,1.76
2018-06-28T21:07:26.292Z,1.9
2018-06-28T21:13:21.250Z,1.74
2018-06-28T21:19:16.228Z,2.68
2018-06-28T21:25:11.267Z,3.4
2018-06-28T21:31:06.291Z,3.17
2018-06-28T21:37:01.253Z,3.18
2018-06-28T21:42:56.246Z,2.4
2018-06-28T21:48:51.274Z,2.33
2018-06-28T21:54:46.235Z,2.12
2018-06-28T22:00:41.301Z,1.92
2018-06-28T22:06:36.258Z,2.33
2018-06-28T22:12:31.302Z,2.77
2018-06-28T22:18:26.314Z,3.14
2018-06-28T22:24:21.259Z,2.85
2018-06-28T22:30:16.283Z,2.42
2018-06-28T22:36:11.284Z,1.96
2018-06-28T22:42:06.330Z,2.6
2018-06-28T22:48:01.306Z,2.24
2018-06-28T22:53:56.285Z,2.1
2018-06-28T22:59:51.284Z,2.52
2018-06-28T23:05:46.295Z,2.62
2018-06-28T23:11:41.298Z,2.85
2018-06-28T23:17:36.307Z,2.7
2018-06-28T23:23:31.320Z,2.28
2018-06-28T23:29:26.364Z,2.75
2018-06-28T23:35:21.319Z,2.55
2018-06-28T23:41:16.339Z,2.26
2018-06-28T23:47:11.320Z,1.85
2018-06-28T23:53:06.318Z,2.02
2018-06-28T23:59:01.332Z,2.08
